sensor_id;sensor_type;location;lat;lon;timestamp;P1;durP1;ratioP1;P2;durP2;ratioP2
3698;SDS011;1865;50.918;7.092;2023-04-03T00:01:31;6.33;;;1.70;;
3698;SDS011;1865;50.918;7.092;2023-04-03T00:03:57;7.27;;;1.90;;
3698;SDS011;1865;50.918;7.092;2023-04-03T00:06:23;5.77;;;1.63;;
3698;SDS011;1865;50.918;7.092;2023-04-03T00:08:49;5.83;;;1.97;;
3698;SDS011;1865;50.918;7.092;2023-04-03T00:11:16;10.47;;;2.27;;
3698;SDS011;1865;50.918;7.092;2023-04-03T00:13:42;5.20;;;1.83;;
3698;SDS011;1865;50.918;7.092;2023-04-03T00:16:08;4.90;;;1.47;;
3698;SDS011;1865;50.918;7.092;2023-04-03T00:18:35;7.10;;;1.70;;
3698;SDS011;1865;50.918;7.092;2023-04-03T00:21:01;5.20;;;1.80;;
3698;SDS011;1865;50.918;7.092;2023-04-03T00:23:27;10.50;;;2.20;;
3698;SDS011;1865;50.918;7.092;2023-04-03T00:25:53;11.30;;;2.13;;
3698;SDS011;1865;50.918;7.092;2023-04-03T00:28:19;6.23;;;2.20;;
3698;SDS011;1865;50.918;7.092;2023-04-03T00:30:45;6.40;;;1.87;;
3698;SDS011;1865;50.918;7.092;2023-04-03T00:33:13;6.30;;;1.70;;
3698;SDS011;1865;50.918;7.092;2023-04-03T00:35:39;6.57;;;2.07;;
3698;SDS011;1865;50.918;7.092;2023-04-03T00:38:05;5.87;;;1.50;;
3698;SDS011;1865;50.918;7.092;2023-04-03T00:40:34;6.10;;;1.83;;
3698;SDS011;1865;50.918;7.092;2023-04-03T00:43:01;5.80;;;1.60;;
3698;SDS011;1865;50.918;7.092;2023-04-03T00:45:37;7.20;;;1.73;;
3698;SDS011;1865;50.918;7.092;2023-04-03T00:48:05;5.40;;;1.87;;
3698;SDS011;1865;50.918;7.092;2023-04-03T00:50:35;6.40;;;1.70;;
3698;SDS011;1865;50.918;7.092;2023-04-03T00:53:03;5.50;;;1.93;;
3698;SDS011;1865;50.918;7.092;2023-04-03T00:55:31;8.90;;;1.70;;
3698;SDS011;1865;50.918;7.092;2023-04-03T00:57:57;5.53;;;1.80;;
3698;SDS011;1865;50.918;7.092;2023-04-03T01:00:25;9.37;;;1.90;;
3698;SDS011;1865;50.918;7.092;2023-04-03T01:02:51;5.07;;;1.60;;
3698;SDS011;1865;50.918;7.092;2023-04-03T01:05:17;6.40;;;1.57;;
3698;SDS011;1865;50.918;7.092;2023-04-03T01:07:45;7.97;;;2.13;;
3698;SDS011;1865;50.918;7.092;2023-04-03T01:10:12;7.00;;;1.57;;
3698;SDS011;1865;50.918;7.092;2023-04-03T01:12:41;4.97;;;1.43;;
3698;SDS011;1865;50.918;7.092;2023-04-03T01:15:09;7.60;;;1.70;;
3698;SDS011;1865;50.918;7.092;2023-04-03T01:17:50;7.73;;;2.00;;
3698;SDS011;1865;50.918;7.092;2023-04-03T01:28:10;7.00;;;1.47;;
3698;SDS011;1865;50.918;7.092;2023-04-03T01:30:43;10.47;;;1.80;;
3698;SDS011;1865;50.918;7.092;2023-04-03T01:33:30;5.70;;;1.63;;
3698;SDS011;1865;50.918;7.092;2023-04-03T01:35:56;5.77;;;1.77;;
3698;SDS011;1865;50.918;7.092;2023-04-03T01:38:22;6.73;;;1.80;;
3698;SDS011;1865;50.918;7.092;2023-04-03T01:40:47;4.67;;;1.47;;
3698;SDS011;1865;50.918;7.092;2023-04-03T01:43:13;6.33;;;1.67;;
3698;SDS011;1865;50.918;7.092;2023-04-03T01:45:38;11.77;;;1.80;;
3698;SDS011;1865;50.918;7.092;2023-04-03T01:48:04;5.13;;;1.53;;
3698;SDS011;1865;50.918;7.092;2023-04-03T01:50:30;5.70;;;1.53;;
3698;SDS011;1865;50.918;7.092;2023-04-03T01:52:55;5.60;;;1.90;;
3698;SDS011;1865;50.918;7.092;2023-04-03T01:55:21;10.97;;;1.50;;
3698;SDS011;1865;50.918;7.092;2023-04-03T01:57:46;6.53;;;1.80;;
3698;SDS011;1865;50.918;7.092;2023-04-03T02:00:12;5.80;;;1.80;;
3698;SDS011;1865;50.918;7.092;2023-04-03T02:02:38;6.20;;;2.20;;
3698;SDS011;1865;50.918;7.092;2023-04-03T02:05:04;4.93;;;1.73;;
3698;SDS011;1865;50.918;7.092;2023-04-03T02:07:30;8.43;;;2.03;;
3698;SDS011;1865;50.918;7.092;2023-04-03T02:09:55;5.63;;;1.50;;
3698;SDS011;1865;50.918;7.092;2023-04-03T02:12:21;8.00;;;1.70;;
3698;SDS011;1865;50.918;7.092;2023-04-03T02:14:46;6.33;;;1.97;;
3698;SDS011;1865;50.918;7.092;2023-04-03T02:17:12;7.23;;;2.03;;
3698;SDS011;1865;50.918;7.092;2023-04-03T02:19:37;5.70;;;1.73;;
3698;SDS011;1865;50.918;7.092;2023-04-03T02:22:03;9.33;;;1.83;;
3698;SDS011;1865;50.918;7.092;2023-04-03T02:24:29;11.30;;;2.10;;
3698;SDS011;1865;50.918;7.092;2023-04-03T02:26:55;4.47;;;1.60;;
3698;SDS011;1865;50.918;7.092;2023-04-03T02:29:21;8.43;;;1.67;;
3698;SDS011;1865;50.918;7.092;2023-04-03T02:31:47;6.10;;;1.70;;
3698;SDS011;1865;50.918;7.092;2023-04-03T02:34:13;5.13;;;1.83;;
3698;SDS011;1865;50.918;7.092;2023-04-03T02:36:38;5.80;;;2.00;;
3698;SDS011;1865;50.918;7.092;2023-04-03T02:39:04;4.50;;;1.60;;
3698;SDS011;1865;50.918;7.092;2023-04-03T02:41:30;6.00;;;2.20;;
3698;SDS011;1865;50.918;7.092;2023-04-03T02:44:00;5.00;;;1.60;;
3698;SDS011;1865;50.918;7.092;2023-04-03T02:46:27;6.40;;;2.10;;
3698;SDS011;1865;50.918;7.092;2023-04-03T02:48:53;7.53;;;2.07;;
3698;SDS011;1865;50.918;7.092;2023-04-03T02:51:18;8.77;;;2.17;;
3698;SDS011;1865;50.918;7.092;2023-04-03T02:53:44;5.17;;;1.47;;
3698;SDS011;1865;50.918;7.092;2023-04-03T02:56:10;5.47;;;2.30;;
3698;SDS011;1865;50.918;7.092;2023-04-03T02:58:35;8.80;;;2.07;;
3698;SDS011;1865;50.918;7.092;2023-04-03T03:01:01;4.67;;;1.63;;
3698;SDS011;1865;50.918;7.092;2023-04-03T03:03:27;5.83;;;1.77;;
3698;SDS011;1865;50.918;7.092;2023-04-03T03:06:09;4.03;;;1.60;;
3698;SDS011;1865;50.918;7.092;2023-04-03T03:08:36;6.47;;;2.13;;
3698;SDS011;1865;50.918;7.092;2023-04-03T03:11:02;5.17;;;1.93;;
3698;SDS011;1865;50.918;7.092;2023-04-03T03:13:28;5.00;;;1.90;;
3698;SDS011;1865;50.918;7.092;2023-04-03T03:15:55;4.77;;;2.10;;
3698;SDS011;1865;50.918;7.092;2023-04-03T03:18:21;9.47;;;2.07;;
3698;SDS011;1865;50.918;7.092;2023-04-03T03:20:50;4.10;;;2.10;;
3698;SDS011;1865;50.918;7.092;2023-04-03T03:23:21;5.53;;;2.27;;
3698;SDS011;1865;50.918;7.092;2023-04-03T03:25:47;4.60;;;1.53;;
3698;SDS011;1865;50.918;7.092;2023-04-03T03:28:13;5.90;;;2.20;;
3698;SDS011;1865;50.918;7.092;2023-04-03T03:30:38;4.73;;;2.20;;
3698;SDS011;1865;50.918;7.092;2023-04-03T03:33:04;5.73;;;1.97;;
3698;SDS011;1865;50.918;7.092;2023-04-03T03:35:29;5.77;;;2.00;;
3698;SDS011;1865;50.918;7.092;2023-04-03T03:37:55;5.10;;;2.00;;
3698;SDS011;1865;50.918;7.092;2023-04-03T03:40:21;10.50;;;2.53;;
3698;SDS011;1865;50.918;7.092;2023-04-03T03:42:46;8.60;;;2.53;;
3698;SDS011;1865;50.918;7.092;2023-04-03T03:45:12;7.03;;;2.50;;
3698;SDS011;1865;50.918;7.092;2023-04-03T03:47:37;7.50;;;3.27;;
3698;SDS011;1865;50.918;7.092;2023-04-03T03:50:03;9.17;;;2.30;;
3698;SDS011;1865;50.918;7.092;2023-04-03T03:52:29;4.90;;;2.40;;
3698;SDS011;1865;50.918;7.092;2023-04-03T03:54:55;6.50;;;2.40;;
3698;SDS011;1865;50.918;7.092;2023-04-03T03:57:21;6.47;;;2.40;;
3698;SDS011;1865;50.918;7.092;2023-04-03T03:59:46;8.97;;;3.10;;
3698;SDS011;1865;50.918;7.092;2023-04-03T04:02:13;6.97;;;2.10;;
3698;SDS011;1865;50.918;7.092;2023-04-03T04:04:39;6.30;;;2.20;;
3698;SDS011;1865;50.918;7.092;2023-04-03T04:07:05;7.00;;;2.20;;
3698;SDS011;1865;50.918;7.092;2023-04-03T04:09:30;5.53;;;2.17;;
3698;SDS011;1865;50.918;7.092;2023-04-03T04:11:56;8.43;;;2.30;;
3698;SDS011;1865;50.918;7.092;2023-04-03T04:14:21;4.80;;;1.63;;
3698;SDS011;1865;50.918;7.092;2023-04-03T04:16:47;8.13;;;1.97;;
3698;SDS011;1865;50.918;7.092;2023-04-03T04:19:13;6.20;;;2.40;;
3698;SDS011;1865;50.918;7.092;2023-04-03T04:21:39;9.13;;;2.33;;
3698;SDS011;1865;50.918;7.092;2023-04-03T04:24:06;9.27;;;2.10;;
3698;SDS011;1865;50.918;7.092;2023-04-03T04:26:32;7.60;;;2.17;;
3698;SDS011;1865;50.918;7.092;2023-04-03T04:28:58;4.70;;;1.70;;
3698;SDS011;1865;50.918;7.092;2023-04-03T04:31:23;5.87;;;2.00;;
3698;SDS011;1865;50.918;7.092;2023-04-03T04:33:49;5.67;;;2.03;;
3698;SDS011;1865;50.918;7.092;2023-04-03T04:36:14;9.70;;;2.10;;
3698;SDS011;1865;50.918;7.092;2023-04-03T04:38:40;6.13;;;2.43;;
3698;SDS011;1865;50.918;7.092;2023-04-03T04:41:06;9.67;;;2.07;;
3698;SDS011;1865;50.918;7.092;2023-04-03T04:43:32;8.23;;;2.03;;
3698;SDS011;1865;50.918;7.092;2023-04-03T04:46:05;17.73;;;1.80;;
3698;SDS011;1865;50.918;7.092;2023-04-03T04:48:33;5.50;;;1.70;;
3698;SDS011;1865;50.918;7.092;2023-04-03T04:50:59;7.93;;;1.93;;
3698;SDS011;1865;50.918;7.092;2023-04-03T04:53:24;6.70;;;2.10;;
3698;SDS011;1865;50.918;7.092;2023-04-03T04:55:50;8.90;;;1.80;;
3698;SDS011;1865;50.918;7.092;2023-04-03T04:58:16;10.07;;;2.13;;
3698;SDS011;1865;50.918;7.092;2023-04-03T05:00:42;8.20;;;1.90;;
3698;SDS011;1865;50.918;7.092;2023-04-03T05:03:07;7.47;;;2.10;;
3698;SDS011;1865;50.918;7.092;2023-04-03T05:05:33;5.10;;;1.67;;
3698;SDS011;1865;50.918;7.092;2023-04-03T05:07:59;6.70;;;2.17;;
3698;SDS011;1865;50.918;7.092;2023-04-03T05:10:24;11.70;;;1.80;;
3698;SDS011;1865;50.918;7.092;2023-04-03T05:12:50;6.00;;;1.83;;
3698;SDS011;1865;50.918;7.092;2023-04-03T05:15:16;6.53;;;1.90;;
3698;SDS011;1865;50.918;7.092;2023-04-03T05:17:41;6.77;;;2.10;;
3698;SDS011;1865;50.918;7.092;2023-04-03T05:20:07;8.17;;;2.10;;
3698;SDS011;1865;50.918;7.092;2023-04-03T05:22:33;9.23;;;1.33;;
3698;SDS011;1865;50.918;7.092;2023-04-03T05:24:59;5.03;;;1.80;;
3698;SDS011;1865;50.918;7.092;2023-04-03T05:27:24;5.60;;;1.47;;
3698;SDS011;1865;50.918;7.092;2023-04-03T05:29:53;11.00;;;1.90;;
3698;SDS011;1865;50.918;7.092;2023-04-03T05:32:19;4.80;;;1.70;;
3698;SDS011;1865;50.918;7.092;2023-04-03T05:34:45;6.10;;;1.53;;
3698;SDS011;1865;50.918;7.092;2023-04-03T05:37:10;6.70;;;2.17;;
3698;SDS011;1865;50.918;7.092;2023-04-03T05:39:36;6.40;;;1.40;;
3698;SDS011;1865;50.918;7.092;2023-04-03T05:42:03;19.40;;;1.63;;
3698;SDS011;1865;50.918;7.092;2023-04-03T05:44:29;5.33;;;1.53;;
3698;SDS011;1865;50.918;7.092;2023-04-03T05:46:54;7.10;;;1.77;;
3698;SDS011;1865;50.918;7.092;2023-04-03T05:49:20;8.20;;;1.80;;
3698;SDS011;1865;50.918;7.092;2023-04-03T05:51:45;8.80;;;1.47;;
3698;SDS011;1865;50.918;7.092;2023-04-03T05:56:44;7.10;;;1.33;;
3698;SDS011;1865;50.918;7.092;2023-04-03T05:59:10;6.93;;;1.40;;
3698;SDS011;1865;50.918;7.092;2023-04-03T06:01:35;10.07;;;1.23;;
3698;SDS011;1865;50.918;7.092;2023-04-03T06:04:02;7.45;;;1.40;;
3698;SDS011;1865;50.918;7.092;2023-04-03T06:06:42;8.47;;;1.40;;
3698;SDS011;1865;50.918;7.092;2023-04-03T06:09:09;9.63;;;1.63;;
3698;SDS011;1865;50.918;7.092;2023-04-03T06:11:35;6.00;;;1.50;;
3698;SDS011;1865;50.918;7.092;2023-04-03T06:14:00;4.70;;;0.90;;
3698;SDS011;1865;50.918;7.092;2023-04-03T06:16:26;13.30;;;1.87;;
3698;SDS011;1865;50.918;7.092;2023-04-03T06:18:51;9.90;;;1.83;;
3698;SDS011;1865;50.918;7.092;2023-04-03T06:21:17;12.70;;;1.67;;
3698;SDS011;1865;50.918;7.092;2023-04-03T06:23:42;6.60;;;1.50;;
3698;SDS011;1865;50.918;7.092;2023-04-03T06:26:08;6.03;;;1.27;;
3698;SDS011;1865;50.918;7.092;2023-04-03T06:28:33;10.80;;;1.30;;
3698;SDS011;1865;50.918;7.092;2023-04-03T06:30:59;6.33;;;1.50;;
3698;SDS011;1865;50.918;7.092;2023-04-03T06:33:25;11.17;;;1.63;;
3698;SDS011;1865;50.918;7.092;2023-04-03T06:35:55;6.03;;;1.40;;
3698;SDS011;1865;50.918;7.092;2023-04-03T06:38:21;10.73;;;1.37;;
3698;SDS011;1865;50.918;7.092;2023-04-03T06:40:47;17.80;;;2.20;;
3698;SDS011;1865;50.918;7.092;2023-04-03T06:43:12;8.93;;;1.83;;
3698;SDS011;1865;50.918;7.092;2023-04-03T06:45:38;5.20;;;1.10;;
3698;SDS011;1865;50.918;7.092;2023-04-03T06:48:03;13.40;;;1.57;;
3698;SDS011;1865;50.918;7.092;2023-04-03T06:50:30;8.40;;;1.50;;
3698;SDS011;1865;50.918;7.092;2023-04-03T06:52:55;6.17;;;1.43;;
3698;SDS011;1865;50.918;7.092;2023-04-03T06:55:21;11.00;;;1.53;;
3698;SDS011;1865;50.918;7.092;2023-04-03T06:57:47;6.10;;;1.10;;
3698;SDS011;1865;50.918;7.092;2023-04-03T07:00:13;6.23;;;1.43;;
3698;SDS011;1865;50.918;7.092;2023-04-03T07:02:39;7.20;;;1.40;;
3698;SDS011;1865;50.918;7.092;2023-04-03T07:05:05;9.60;;;1.70;;
3698;SDS011;1865;50.918;7.092;2023-04-03T07:07:31;7.03;;;1.10;;
3698;SDS011;1865;50.918;7.092;2023-04-03T07:09:58;6.03;;;1.50;;
3698;SDS011;1865;50.918;7.092;2023-04-03T07:12:24;6.73;;;1.53;;
3698;SDS011;1865;50.918;7.092;2023-04-03T07:14:50;5.70;;;1.30;;
3698;SDS011;1865;50.918;7.092;2023-04-03T07:17:16;8.37;;;1.17;;
3698;SDS011;1865;50.918;7.092;2023-04-03T07:19:41;7.77;;;1.67;;
3698;SDS011;1865;50.918;7.092;2023-04-03T07:22:07;5.47;;;1.10;;
3698;SDS011;1865;50.918;7.092;2023-04-03T07:24:32;7.37;;;1.57;;
3698;SDS011;1865;50.918;7.092;2023-04-03T07:26:58;7.57;;;1.50;;
3698;SDS011;1865;50.918;7.092;2023-04-03T07:29:24;7.83;;;1.50;;
3698;SDS011;1865;50.918;7.092;2023-04-03T07:31:49;6.70;;;1.53;;
3698;SDS011;1865;50.918;7.092;2023-04-03T07:34:15;5.47;;;1.10;;
3698;SDS011;1865;50.918;7.092;2023-04-03T07:36:40;6.53;;;1.30;;
3698;SDS011;1865;50.918;7.092;2023-04-03T07:39:06;8.40;;;1.47;;
3698;SDS011;1865;50.918;7.092;2023-04-03T07:41:33;7.70;;;1.40;;
3698;SDS011;1865;50.918;7.092;2023-04-03T07:43:58;6.77;;;1.27;;
3698;SDS011;1865;50.918;7.092;2023-04-03T07:46:24;8.53;;;1.50;;
3698;SDS011;1865;50.918;7.092;2023-04-03T07:48:49;8.73;;;1.37;;
3698;SDS011;1865;50.918;7.092;2023-04-03T07:51:15;5.20;;;1.30;;
3698;SDS011;1865;50.918;7.092;2023-04-03T07:53:41;12.40;;;1.83;;
3698;SDS011;1865;50.918;7.092;2023-04-03T07:56:07;6.10;;;1.27;;
3698;SDS011;1865;50.918;7.092;2023-04-03T07:58:33;7.43;;;1.43;;
3698;SDS011;1865;50.918;7.092;2023-04-03T08:00:59;8.53;;;1.43;;
3698;SDS011;1865;50.918;7.092;2023-04-03T08:03:25;6.53;;;1.20;;
3698;SDS011;1865;50.918;7.092;2023-04-03T08:05:50;7.40;;;1.40;;
3698;SDS011;1865;50.918;7.092;2023-04-03T08:08:20;9.00;;;1.87;;
3698;SDS011;1865;50.918;7.092;2023-04-03T08:10:51;11.80;;;1.63;;
3698;SDS011;1865;50.918;7.092;2023-04-03T08:13:18;9.17;;;1.43;;
3698;SDS011;1865;50.918;7.092;2023-04-03T08:15:43;8.00;;;1.67;;
3698;SDS011;1865;50.918;7.092;2023-04-03T08:18:09;7.70;;;1.33;;
3698;SDS011;1865;50.918;7.092;2023-04-03T08:20:35;10.33;;;1.40;;
3698;SDS011;1865;50.918;7.092;2023-04-03T08:23:02;8.60;;;1.30;;
3698;SDS011;1865;50.918;7.092;2023-04-03T08:25:27;7.30;;;1.30;;
3698;SDS011;1865;50.918;7.092;2023-04-03T08:27:54;9.37;;;2.03;;
3698;SDS011;1865;50.918;7.092;2023-04-03T08:30:20;7.17;;;1.23;;
3698;SDS011;1865;50.918;7.092;2023-04-03T08:32:46;8.60;;;1.47;;
3698;SDS011;1865;50.918;7.092;2023-04-03T08:35:12;19.17;;;2.10;;
3698;SDS011;1865;50.918;7.092;2023-04-03T08:37:38;9.23;;;1.40;;
3698;SDS011;1865;50.918;7.092;2023-04-03T08:40:04;10.37;;;1.40;;
3698;SDS011;1865;50.918;7.092;2023-04-03T08:42:43;8.93;;;1.40;;
3698;SDS011;1865;50.918;7.092;2023-04-03T08:45:19;7.60;;;1.20;;
3698;SDS011;1865;50.918;7.092;2023-04-03T08:50:39;8.37;;;1.30;;
3698;SDS011;1865;50.918;7.092;2023-04-03T08:53:11;8.30;;;1.20;;
3698;SDS011;1865;50.918;7.092;2023-04-03T08:55:42;6.90;;;0.90;;
3698;SDS011;1865;50.918;7.092;2023-04-03T09:03:22;9.63;;;1.40;;
3698;SDS011;1865;50.918;7.092;2023-04-03T09:08:57;6.90;;;1.30;;
3698;SDS011;1865;50.918;7.092;2023-04-03T09:11:11;9.73;;;1.30;;
3698;SDS011;1865;50.918;7.092;2023-04-03T09:13:42;7.10;;;1.20;;
3698;SDS011;1865;50.918;7.092;2023-04-03T09:19:07;12.00;;;1.30;;
3698;SDS011;1865;50.918;7.092;2023-04-03T09:21:45;9.73;;;0.80;;
3698;SDS011;1865;50.918;7.092;2023-04-03T09:24:12;7.23;;;1.27;;
3698;SDS011;1865;50.918;7.092;2023-04-03T09:26:51;10.50;;;1.10;;
3698;SDS011;1865;50.918;7.092;2023-04-03T09:29:24;6.40;;;1.00;;
3698;SDS011;1865;50.918;7.092;2023-04-03T09:31:52;9.20;;;1.10;;
3698;SDS011;1865;50.918;7.092;2023-04-03T09:34:23;6.00;;;1.03;;
3698;SDS011;1865;50.918;7.092;2023-04-03T09:36:53;6.20;;;1.30;;
3698;SDS011;1865;50.918;7.092;2023-04-03T09:39:21;16.13;;;1.00;;
3698;SDS011;1865;50.918;7.092;2023-04-03T09:41:59;7.90;;;1.00;;
3698;SDS011;1865;50.918;7.092;2023-04-03T09:44:30;7.10;;;1.13;;
3698;SDS011;1865;50.918;7.092;2023-04-03T09:46:58;6.70;;;1.00;;
3698;SDS011;1865;50.918;7.092;2023-04-03T09:49:25;10.20;;;1.50;;
3698;SDS011;1865;50.918;7.092;2023-04-03T09:51:51;8.03;;;1.27;;
3698;SDS011;1865;50.918;7.092;2023-04-03T09:54:30;9.60;;;1.10;;
3698;SDS011;1865;50.918;7.092;2023-04-03T09:57:01;8.03;;;1.20;;
3698;SDS011;1865;50.918;7.092;2023-04-03T09:59:31;6.80;;;1.07;;
3698;SDS011;1865;50.918;7.092;2023-04-03T10:02:02;6.20;;;0.80;;
3698;SDS011;1865;50.918;7.092;2023-04-03T10:04:40;13.30;;;1.00;;
3698;SDS011;1865;50.918;7.092;2023-04-03T10:07:25;6.70;;;0.80;;
3698;SDS011;1865;50.918;7.092;2023-04-03T10:09:56;8.13;;;1.07;;
3698;SDS011;1865;50.918;7.092;2023-04-03T10:12:28;9.50;;;0.87;;
3698;SDS011;1865;50.918;7.092;2023-04-03T10:17:45;9.03;;;0.87;;
3698;SDS011;1865;50.918;7.092;2023-04-03T10:20:26;6.40;;;0.90;;
3698;SDS011;1865;50.918;7.092;2023-04-03T10:31:21;18.90;;;1.47;;
3698;SDS011;1865;50.918;7.092;2023-04-03T10:36:51;8.07;;;0.80;;
3698;SDS011;1865;50.918;7.092;2023-04-03T10:47:47;7.20;;;0.60;;
3698;SDS011;1865;50.918;7.092;2023-04-03T10:55:34;6.77;;;0.90;;
3698;SDS011;1865;50.918;7.092;2023-04-03T10:58:21;7.50;;;1.03;;
3698;SDS011;1865;50.918;7.092;2023-04-03T11:00:55;6.70;;;0.80;;
3698;SDS011;1865;50.918;7.092;2023-04-03T11:03:36;6.63;;;0.60;;
3698;SDS011;1865;50.918;7.092;2023-04-03T11:06:07;5.40;;;0.67;;
3698;SDS011;1865;50.918;7.092;2023-04-03T11:08:37;5.83;;;0.70;;
3698;SDS011;1865;50.918;7.092;2023-04-03T11:11:09;8.00;;;0.90;;
3698;SDS011;1865;50.918;7.092;2023-04-03T11:16:20;8.77;;;1.00;;
3698;SDS011;1865;50.918;7.092;2023-04-03T11:18:59;6.60;;;0.80;;
3698;SDS011;1865;50.918;7.092;2023-04-03T11:21:57;6.80;;;1.10;;
3698;SDS011;1865;50.918;7.092;2023-04-03T11:24:27;6.00;;;1.00;;
3698;SDS011;1865;50.918;7.092;2023-04-03T11:26:56;7.00;;;1.00;;
3698;SDS011;1865;50.918;7.092;2023-04-03T11:29:26;7.40;;;0.80;;
3698;SDS011;1865;50.918;7.092;2023-04-03T11:34:44;6.13;;;0.90;;
3698;SDS011;1865;50.918;7.092;2023-04-03T11:37:13;6.90;;;1.00;;
3698;SDS011;1865;50.918;7.092;2023-04-03T11:40:06;7.57;;;0.93;;
3698;SDS011;1865;50.918;7.092;2023-04-03T11:42:46;5.40;;;0.60;;
3698;SDS011;1865;50.918;7.092;2023-04-03T11:47:58;6.30;;;0.90;;
3698;SDS011;1865;50.918;7.092;2023-04-03T12:05:53;7.57;;;1.00;;
3698;SDS011;1865;50.918;7.092;2023-04-03T12:08:29;6.93;;;0.90;;
3698;SDS011;1865;50.918;7.092;2023-04-03T12:13:41;7.10;;;1.00;;
3698;SDS011;1865;50.918;7.092;2023-04-03T12:40:10;6.17;;;0.90;;
3698;SDS011;1865;50.918;7.092;2023-04-03T12:42:55;5.87;;;0.70;;
3698;SDS011;1865;50.918;7.092;2023-04-03T12:48:38;8.80;;;1.20;;
3698;SDS011;1865;50.918;7.092;2023-04-03T12:51:13;7.80;;;0.77;;
3698;SDS011;1865;50.918;7.092;2023-04-03T12:53:42;7.37;;;0.80;;
3698;SDS011;1865;50.918;7.092;2023-04-03T12:58:47;7.90;;;0.93;;
3698;SDS011;1865;50.918;7.092;2023-04-03T13:01:15;7.67;;;0.90;;
3698;SDS011;1865;50.918;7.092;2023-04-03T13:03:44;9.03;;;1.23;;
3698;SDS011;1865;50.918;7.092;2023-04-03T13:06:19;7.53;;;1.03;;
3698;SDS011;1865;50.918;7.092;2023-04-03T13:08:52;6.87;;;1.00;;
3698;SDS011;1865;50.918;7.092;2023-04-03T13:11:22;11.33;;;1.07;;
3698;SDS011;1865;50.918;7.092;2023-04-03T13:14:03;7.80;;;1.03;;
3698;SDS011;1865;50.918;7.092;2023-04-03T13:16:31;6.77;;;0.90;;
3698;SDS011;1865;50.918;7.092;2023-04-03T13:18:58;7.00;;;0.93;;
3698;SDS011;1865;50.918;7.092;2023-04-03T13:21:25;6.93;;;1.17;;
3698;SDS011;1865;50.918;7.092;2023-04-03T13:23:54;7.50;;;0.90;;
3698;SDS011;1865;50.918;7.092;2023-04-03T13:26:27;8.20;;;1.13;;
3698;SDS011;1865;50.918;7.092;2023-04-03T13:28:57;9.80;;;0.97;;
3698;SDS011;1865;50.918;7.092;2023-04-03T13:31:43;9.10;;;1.00;;
3698;SDS011;1865;50.918;7.092;2023-04-03T13:36:36;7.23;;;1.00;;
3698;SDS011;1865;50.918;7.092;2023-04-03T13:39:06;8.60;;;0.93;;
3698;SDS011;1865;50.918;7.092;2023-04-03T13:41:39;9.13;;;0.80;;
3698;SDS011;1865;50.918;7.092;2023-04-03T13:46:47;7.50;;;1.27;;
3698;SDS011;1865;50.918;7.092;2023-04-03T13:49:21;8.00;;;1.00;;
3698;SDS011;1865;50.918;7.092;2023-04-03T13:51:55;7.90;;;1.43;;
3698;SDS011;1865;50.918;7.092;2023-04-03T13:54:28;7.43;;;1.30;;
3698;SDS011;1865;50.918;7.092;2023-04-03T13:56:57;7.33;;;1.00;;
3698;SDS011;1865;50.918;7.092;2023-04-03T13:59:28;7.30;;;1.00;;
3698;SDS011;1865;50.918;7.092;2023-04-03T14:04:28;7.03;;;1.10;;
3698;SDS011;1865;50.918;7.092;2023-04-03T14:06:55;6.90;;;0.97;;
3698;SDS011;1865;50.918;7.092;2023-04-03T14:09:22;7.87;;;1.20;;
3698;SDS011;1865;50.918;7.092;2023-04-03T14:11:49;7.63;;;1.23;;
3698;SDS011;1865;50.918;7.092;2023-04-03T14:14:20;7.77;;;1.10;;
3698;SDS011;1865;50.918;7.092;2023-04-03T14:16:50;8.20;;;1.30;;
3698;SDS011;1865;50.918;7.092;2023-04-03T14:19:20;7.87;;;1.23;;
3698;SDS011;1865;50.918;7.092;2023-04-03T14:21:48;10.10;;;1.17;;
3698;SDS011;1865;50.918;7.092;2023-04-03T14:24:16;8.60;;;1.20;;
3698;SDS011;1865;50.918;7.092;2023-04-03T14:26:42;8.83;;;1.50;;
3698;SDS011;1865;50.918;7.092;2023-04-03T14:29:09;7.90;;;0.87;;
3698;SDS011;1865;50.918;7.092;2023-04-03T14:31:36;8.10;;;1.20;;
3698;SDS011;1865;50.918;7.092;2023-04-03T14:34:01;8.40;;;1.27;;
3698;SDS011;1865;50.918;7.092;2023-04-03T14:36:27;9.10;;;1.10;;
3698;SDS011;1865;50.918;7.092;2023-04-03T14:38:54;11.40;;;1.40;;
3698;SDS011;1865;50.918;7.092;2023-04-03T14:41:21;6.77;;;1.00;;
3698;SDS011;1865;50.918;7.092;2023-04-03T14:43:48;8.67;;;1.20;;
3698;SDS011;1865;50.918;7.092;2023-04-03T14:46:18;7.80;;;0.90;;
3698;SDS011;1865;50.918;7.092;2023-04-03T14:48:48;8.87;;;0.90;;
3698;SDS011;1865;50.918;7.092;2023-04-03T14:51:14;7.17;;;0.90;;
3698;SDS011;1865;50.918;7.092;2023-04-03T14:53:41;7.23;;;1.20;;
3698;SDS011;1865;50.918;7.092;2023-04-03T14:56:12;7.27;;;1.00;;
3698;SDS011;1865;50.918;7.092;2023-04-03T14:58:51;7.87;;;1.10;;
3698;SDS011;1865;50.918;7.092;2023-04-03T15:01:19;11.20;;;1.20;;
3698;SDS011;1865;50.918;7.092;2023-04-03T15:03:44;9.00;;;1.20;;
3698;SDS011;1865;50.918;7.092;2023-04-03T15:06:11;10.07;;;1.10;;
3698;SDS011;1865;50.918;7.092;2023-04-03T15:08:38;7.80;;;1.23;;
3698;SDS011;1865;50.918;7.092;2023-04-03T15:11:06;9.60;;;1.33;;
3698;SDS011;1865;50.918;7.092;2023-04-03T15:13:31;7.50;;;1.00;;
3698;SDS011;1865;50.918;7.092;2023-04-03T15:15:57;7.20;;;1.20;;
3698;SDS011;1865;50.918;7.092;2023-04-03T15:18:24;8.80;;;1.00;;
3698;SDS011;1865;50.918;7.092;2023-04-03T15:20:51;8.17;;;1.30;;
3698;SDS011;1865;50.918;7.092;2023-04-03T15:23:17;8.63;;;1.10;;
3698;SDS011;1865;50.918;7.092;2023-04-03T15:25:43;7.10;;;1.60;;
3698;SDS011;1865;50.918;7.092;2023-04-03T15:28:17;8.73;;;1.30;;
3698;SDS011;1865;50.918;7.092;2023-04-03T15:30:46;6.20;;;1.00;;
3698;SDS011;1865;50.918;7.092;2023-04-03T15:33:12;5.90;;;0.73;;
3698;SDS011;1865;50.918;7.092;2023-04-03T15:35:37;9.77;;;1.43;;
3698;SDS011;1865;50.918;7.092;2023-04-03T15:38:03;5.97;;;0.90;;
3698;SDS011;1865;50.918;7.092;2023-04-03T15:40:29;5.90;;;1.00;;
3698;SDS011;1865;50.918;7.092;2023-04-03T15:42:54;6.37;;;0.90;;
3698;SDS011;1865;50.918;7.092;2023-04-03T15:45:20;6.00;;;1.00;;
3698;SDS011;1865;50.918;7.092;2023-04-03T15:47:46;8.30;;;0.97;;
3698;SDS011;1865;50.918;7.092;2023-04-03T15:50:12;6.07;;;1.20;;
3698;SDS011;1865;50.918;7.092;2023-04-03T15:52:38;5.90;;;0.93;;
3698;SDS011;1865;50.918;7.092;2023-04-03T15:55:03;6.60;;;0.90;;
3698;SDS011;1865;50.918;7.092;2023-04-03T15:57:29;8.27;;;1.10;;
3698;SDS011;1865;50.918;7.092;2023-04-03T15:59:55;11.27;;;1.00;;
3698;SDS011;1865;50.918;7.092;2023-04-03T16:02:21;8.60;;;1.20;;
3698;SDS011;1865;50.918;7.092;2023-04-03T16:04:48;8.67;;;1.30;;
3698;SDS011;1865;50.918;7.092;2023-04-03T16:07:14;10.10;;;1.17;;
3698;SDS011;1865;50.918;7.092;2023-04-03T16:09:40;9.43;;;1.93;;
3698;SDS011;1865;50.918;7.092;2023-04-03T16:12:05;6.20;;;1.33;;
3698;SDS011;1865;50.918;7.092;2023-04-03T16:14:31;7.87;;;1.53;;
3698;SDS011;1865;50.918;7.092;2023-04-03T16:16:57;6.10;;;0.97;;
3698;SDS011;1865;50.918;7.092;2023-04-03T16:19:23;7.97;;;1.37;;
3698;SDS011;1865;50.918;7.092;2023-04-03T16:21:49;6.30;;;0.93;;
3698;SDS011;1865;50.918;7.092;2023-04-03T16:24:15;7.50;;;1.33;;
3698;SDS011;1865;50.918;7.092;2023-04-03T16:26:40;6.80;;;1.40;;
3698;SDS011;1865;50.918;7.092;2023-04-03T16:29:06;6.70;;;1.37;;
3698;SDS011;1865;50.918;7.092;2023-04-03T16:31:32;7.57;;;1.83;;
3698;SDS011;1865;50.918;7.092;2023-04-03T16:33:58;5.70;;;1.10;;
3698;SDS011;1865;50.918;7.092;2023-04-03T16:36:25;8.50;;;1.20;;
3698;SDS011;1865;50.918;7.092;2023-04-03T16:38:51;7.00;;;1.10;;
3698;SDS011;1865;50.918;7.092;2023-04-03T16:41:16;7.23;;;1.53;;
3698;SDS011;1865;50.918;7.092;2023-04-03T16:43:42;7.40;;;1.20;;
3698;SDS011;1865;50.918;7.092;2023-04-03T16:46:07;7.50;;;1.40;;
3698;SDS011;1865;50.918;7.092;2023-04-03T16:48:33;6.90;;;1.50;;
3698;SDS011;1865;50.918;7.092;2023-04-03T16:50:59;8.90;;;1.43;;
3698;SDS011;1865;50.918;7.092;2023-04-03T16:53:25;12.07;;;1.70;;
3698;SDS011;1865;50.918;7.092;2023-04-03T16:55:51;9.73;;;1.50;;
3698;SDS011;1865;50.918;7.092;2023-04-03T16:58:17;7.40;;;1.20;;
3698;SDS011;1865;50.918;7.092;2023-04-03T17:00:43;9.43;;;1.20;;
3698;SDS011;1865;50.918;7.092;2023-04-03T17:03:09;7.53;;;1.33;;
3698;SDS011;1865;50.918;7.092;2023-04-03T17:05:34;7.53;;;0.93;;
3698;SDS011;1865;50.918;7.092;2023-04-03T17:08:00;8.83;;;1.30;;
3698;SDS011;1865;50.918;7.092;2023-04-03T17:10:26;8.20;;;1.30;;
3698;SDS011;1865;50.918;7.092;2023-04-03T17:12:52;9.50;;;1.93;;
3698;SDS011;1865;50.918;7.092;2023-04-03T17:15:18;10.27;;;2.13;;